createdAt,value
2022-10-11T00:00:14.264Z,63.50
2022-10-11T00:03:40.291Z,77.70
2022-10-11T00:07:01.701Z,68.20
2022-10-11T00:10:08.310Z,42.80
2022-10-11T00:13:14.348Z,32.50
2022-10-11T00:16:36.779Z,28.40
2022-10-11T00:19:39.559Z,32.00
2022-10-11T00:22:37.351Z,49.00
2022-10-11T00:25:46.279Z,42.30
2022-10-11T00:28:54.453Z,42.00
2022-10-11T00:31:57.279Z,42.90
2022-10-11T00:35:12.322Z,50.50
2022-10-11T00:38:11.259Z,67.40
2022-10-11T00:41:20.288Z,64.20
2022-10-11T00:44:14.283Z,47.30
2022-10-11T00:47:14.259Z,52.30
2022-10-11T00:50:26.231Z,64.20
2022-10-11T00:53:38.274Z,63.70
2022-10-11T00:56:48.248Z,106.60
2022-10-11T00:59:54.249Z,114.10
2022-10-11T01:03:01.260Z,85.90
2022-10-11T01:06:07.720Z,76.40
2022-10-11T01:09:04.604Z,72.10
2022-10-11T01:12:05.309Z,58.80
2022-10-11T01:15:02.280Z,54.90
2022-10-11T01:18:14.285Z,58.60
2022-10-11T01:25:11.878Z,60.40
2022-10-11T01:28:09.492Z,62.40
2022-10-11T01:31:04.353Z,52.50
2022-10-11T01:34:12.244Z,77.80
2022-10-11T01:37:06.295Z,48.30
2022-10-11T01:39:54.580Z,56.20
2022-10-11T01:43:00.345Z,56.00
2022-10-11T01:46:18.249Z,71.40
2022-10-11T01:49:18.219Z,82.80
2022-10-11T01:52:15.272Z,82.20
2022-10-11T01:55:25.308Z,67.90
2022-10-11T01:58:20.249Z,136.50
2022-10-11T02:01:31.358Z,65.30
2022-10-11T02:04:47.596Z,112.30
2022-10-11T02:08:02.304Z,88.10
2022-10-11T02:11:11.276Z,80.50
2022-10-11T02:14:08.322Z,114.40
2022-10-11T02:17:19.307Z,87.70
2022-10-11T02:20:28.332Z,68.60
2022-10-11T02:23:26.315Z,121.00
2022-10-11T02:26:38.300Z,88.70
2022-10-11T02:29:47.267Z,123.90
2022-10-11T02:32:56.339Z,69.20
2022-10-11T02:36:13.202Z,55.40
2022-10-11T02:39:14.271Z,56.50
2022-10-11T02:42:23.258Z,44.40
2022-10-11T02:45:23.200Z,37.90
2022-10-11T02:48:33.299Z,41.00
2022-10-11T02:51:47.217Z,31.90
2022-10-11T02:54:45.284Z,41.90
2022-10-11T02:57:40.223Z,46.20
2022-10-11T03:00:21.701Z,49.50
2022-10-11T03:03:01.406Z,40.50
2022-10-11T03:05:45.281Z,54.00
2022-10-11T03:08:30.103Z,46.50
2022-10-11T03:11:36.265Z,33.80
2022-10-11T03:14:31.444Z,57.50
2022-10-11T03:17:35.203Z,63.90
2022-10-11T03:20:29.320Z,53.10
2022-10-11T03:23:23.280Z,66.50
2022-10-11T03:26:27.278Z,58.60
2022-10-11T03:29:16.215Z,84.10
2022-10-11T03:32:10.303Z,71.10
2022-10-11T03:35:05.343Z,84.80
2022-10-11T03:38:00.330Z,94.70
2022-10-11T03:41:23.344Z,82.60
2022-10-11T03:44:06.444Z,73.50
2022-10-11T03:46:46.417Z,78.90
2022-10-11T03:49:44.315Z,87.50
2022-10-11T03:52:43.476Z,138.20
2022-10-11T03:55:52.290Z,80.40
2022-10-11T03:59:06.218Z,62.00
2022-10-11T04:02:21.282Z,45.50
2022-10-11T04:05:33.232Z,33.30
2022-10-11T04:08:37.267Z,71.10
2022-10-11T04:11:50.317Z,56.70
2022-10-11T04:18:09.265Z,33.50
2022-10-11T04:24:48.313Z,32.90
2022-10-11T04:31:19.315Z,51.10
2022-10-11T04:34:31.216Z,43.50
2022-10-11T04:37:43.339Z,56.00
2022-10-11T04:40:57.226Z,46.70
2022-10-11T04:51:02.311Z,57.30
2022-10-11T04:54:18.561Z,84.50
2022-10-11T04:57:42.589Z,70.90
2022-10-11T05:00:48.244Z,79.10
2022-10-11T05:07:24.661Z,61.30
2022-10-11T05:10:54.972Z,46.10
2022-10-11T05:14:07.264Z,40.40
2022-10-11T05:17:24.345Z,35.50
2022-10-11T05:20:20.598Z,25.10
2022-10-11T05:22:48.954Z,31.80
2022-10-11T05:25:47.803Z,33.50
2022-10-11T05:28:58.367Z,25.40
2022-10-11T05:32:13.383Z,28.60
2022-10-11T05:35:22.117Z,33.70
2022-10-11T05:38:47.367Z,59.80
2022-10-11T05:45:06.447Z,35.00
2022-10-11T05:51:59.307Z,58.20
2022-10-11T05:55:21.486Z,94.50
2022-10-11T05:58:13.236Z,123.50
2022-10-11T06:01:22.338Z,64.20
2022-10-11T06:08:27.436Z,87.80
2022-10-11T06:11:33.838Z,102.90
2022-10-11T06:17:55.496Z,81.70
2022-10-11T06:20:41.677Z,93.50
2022-10-11T07:17:30.971Z,82.00
2022-10-11T07:22:04.500Z,67.90
2022-10-11T07:24:45.698Z,68.60
2022-10-11T07:27:27.561Z,68.70
2022-10-11T07:30:32.725Z,58.60
2022-10-11T07:33:17.015Z,39.80
2022-10-11T07:35:58.053Z,37.90
2022-10-11T07:38:33.643Z,32.70
2022-10-11T07:41:11.234Z,32.80
2022-10-11T07:44:08.492Z,31.10
2022-10-11T07:47:11.371Z,33.10
2022-10-11T07:49:43.053Z,37.00
2022-10-11T07:52:11.498Z,30.70
2022-10-11T07:54:43.612Z,33.50
2022-10-11T07:57:12.029Z,36.70
2022-10-11T07:59:46.671Z,36.70
2022-10-11T08:02:20.023Z,29.60
2022-10-11T08:04:55.475Z,41.20
2022-10-11T08:07:32.993Z,35.30
2022-10-11T08:10:08.092Z,34.10
2022-10-11T08:12:37.556Z,42.50
2022-10-11T08:15:12.976Z,35.60
2022-10-11T08:17:42.675Z,29.30
2022-10-11T08:20:12.410Z,37.30
2022-10-11T08:22:43.500Z,33.70
2022-10-11T08:25:15.649Z,31.80
2022-10-11T08:27:47.373Z,36.40
2022-10-11T08:30:27.181Z,39.00
2022-10-11T08:33:26.195Z,32.70
2022-10-11T08:40:04.226Z,38.00
2022-10-11T09:43:23.381Z,24.20
2022-10-11T09:45:53.870Z,30.00
2022-10-11T09:49:02.798Z,29.00
2022-10-11T09:58:36.680Z,24.80
2022-10-11T10:01:48.373Z,30.40
2022-10-11T10:04:20.109Z,32.00
2022-10-11T10:07:08.238Z,31.50
2022-10-11T10:09:43.384Z,30.40
2022-10-11T10:12:19.483Z,30.90
2022-10-11T10:15:21.689Z,29.00
2022-10-11T10:20:36.583Z,28.30
2022-10-11T10:23:12.207Z,28.50
2022-10-11T10:25:51.039Z,33.00
2022-10-11T10:28:24.170Z,36.90
2022-10-11T10:30:56.521Z,28.20
2022-10-11T10:33:27.796Z,29.00
2022-10-11T10:36:01.200Z,34.80
2022-10-11T10:38:43.009Z,33.40
2022-10-11T10:41:20.219Z,28.10
2022-10-11T10:44:01.153Z,23.30
2022-10-11T10:46:49.931Z,25.50
2022-10-11T10:49:53.768Z,28.60
2022-10-11T10:52:58.008Z,23.90
2022-10-11T10:55:43.530Z,27.20
2022-10-11T10:58:58.937Z,12.80
2022-10-11T11:01:33.742Z,15.50
2022-10-11T11:04:30.767Z,13.90
2022-10-11T11:07:37.316Z,15.80
2022-10-11T11:10:31.430Z,16.70
2022-10-11T11:13:30.077Z,10.50
2022-10-11T11:16:30.299Z,13.00
2022-10-11T11:19:26.477Z,15.30
2022-10-11T11:22:29.187Z,18.30
2022-10-11T11:25:40.264Z,15.40
2022-10-11T11:28:38.529Z,18.50
2022-10-11T11:31:57.781Z,15.40
2022-10-11T11:34:45.402Z,13.80
2022-10-11T11:37:35.894Z,17.50
2022-10-11T11:40:16.548Z,17.90
2022-10-11T11:42:59.586Z,17.90
2022-10-11T11:46:01.945Z,17.30
2022-10-11T11:48:38.701Z,17.40
2022-10-11T11:51:30.596Z,16.80
2022-10-11T11:58:23.140Z,18.70
2022-10-11T12:02:06.732Z,20.20
2022-10-11T12:08:16.604Z,17.70
2022-10-11T12:08:48.616Z,16.10
2022-10-11T12:15:02.680Z,20.20
2022-10-11T12:15:26.257Z,13.90
2022-10-11T12:18:14.379Z,16.30
2022-10-11T12:21:13.532Z,15.90
2022-10-11T12:23:49.281Z,10.60
2022-10-11T12:26:39.408Z,15.10
2022-10-11T12:29:59.057Z,16.80
2022-10-11T12:32:50.619Z,27.90
2022-10-11T12:35:44.140Z,13.30
2022-10-11T12:38:29.004Z,14.20
2022-10-11T12:41:36.599Z,13.40
2022-10-11T12:44:23.089Z,15.70
2022-10-11T12:47:26.713Z,20.30
2022-10-11T12:50:29.017Z,24.00
2022-10-11T12:53:16.860Z,14.10
2022-10-11T12:56:01.723Z,25.50
2022-10-11T12:58:48.575Z,15.60
2022-10-11T13:01:23.958Z,19.00
2022-10-11T13:04:11.456Z,15.80
2022-10-11T13:06:54.857Z,17.70
2022-10-11T13:09:32.578Z,15.90
2022-10-11T13:12:10.230Z,23.00
2022-10-11T13:15:01.037Z,22.30
2022-10-11T13:17:37.997Z,17.00
2022-10-11T13:20:38.953Z,23.60
2022-10-11T13:24:32.811Z,17.60
2022-10-11T13:27:29.004Z,19.70
2022-10-11T13:30:33.417Z,18.80
2022-10-11T13:36:05.432Z,22.10
2022-10-11T13:38:55.755Z,15.30
2022-10-11T13:41:50.648Z,13.70
2022-10-11T13:44:36.122Z,23.70
2022-10-11T13:47:06.754Z,24.30
2022-10-11T13:49:38.442Z,12.30
2022-10-11T13:52:23.355Z,19.60
2022-10-11T13:54:58.176Z,13.70
2022-10-11T13:57:45.254Z,22.50
2022-10-11T14:00:25.756Z,15.20
2022-10-11T14:03:08.535Z,14.50
2022-10-11T14:05:42.859Z,29.60
2022-10-11T14:08:27.761Z,21.60
2022-10-11T14:10:58.569Z,19.40
2022-10-11T14:13:33.427Z,17.90
2022-10-11T14:16:07.709Z,18.90
2022-10-11T14:18:44.015Z,24.40
2022-10-11T14:21:31.827Z,20.00
2022-10-11T14:24:04.914Z,18.00
2022-10-11T14:26:38.483Z,21.00
2022-10-11T14:29:23.447Z,22.00
2022-10-11T14:31:52.953Z,16.90
2022-10-11T14:34:23.146Z,18.40
2022-10-11T14:36:51.298Z,19.50
2022-10-11T14:39:23.135Z,22.80
2022-10-11T14:41:52.757Z,21.70
2022-10-11T14:44:22.342Z,21.20
2022-10-11T14:46:54.570Z,16.60
2022-10-11T14:49:26.023Z,13.00
2022-10-11T14:51:56.515Z,13.90
2022-10-11T14:54:27.340Z,20.70
2022-10-11T14:56:57.445Z,16.70
2022-10-11T14:59:29.017Z,14.20
2022-10-11T15:01:56.975Z,14.30
2022-10-11T15:04:26.543Z,16.60
2022-10-11T15:06:56.247Z,23.90
2022-10-11T15:09:29.580Z,15.50
2022-10-11T15:11:58.155Z,18.40
2022-10-11T15:14:26.388Z,12.40
2022-10-11T15:16:56.118Z,16.50
2022-10-11T15:19:25.416Z,15.80
2022-10-11T15:21:53.351Z,15.10
2022-10-11T15:24:21.451Z,19.90
2022-10-11T15:26:50.418Z,10.00
2022-10-11T15:29:18.855Z,21.60
2022-10-11T15:31:46.844Z,15.90
2022-10-11T15:34:15.239Z,15.60
2022-10-11T15:36:43.094Z,25.50
2022-10-11T15:39:30.631Z,15.20
2022-10-11T15:41:59.381Z,18.80
2022-10-11T15:44:36.881Z,16.80
2022-10-11T15:47:05.119Z,14.90
2022-10-11T15:49:33.333Z,21.60
2022-10-11T15:52:01.789Z,19.20
2022-10-11T15:54:30.278Z,18.80
2022-10-11T15:56:58.741Z,17.90
2022-10-11T15:59:26.790Z,17.70
2022-10-11T16:01:54.844Z,16.30
2022-10-11T16:04:22.771Z,17.50
2022-10-11T16:06:50.691Z,19.40
2022-10-11T16:09:18.626Z,19.70
2022-10-11T16:11:46.445Z,17.80
2022-10-11T16:14:14.328Z,16.90
2022-10-11T16:16:42.255Z,18.90
2022-10-11T16:19:10.162Z,23.00
2022-10-11T16:21:38.041Z,26.20
2022-10-11T16:24:05.959Z,31.40
2022-10-11T16:26:33.986Z,23.60
2022-10-11T16:29:01.896Z,26.50
2022-10-11T16:31:29.785Z,24.00
2022-10-11T16:33:57.695Z,21.70
2022-10-11T16:36:35.135Z,26.40
2022-10-11T16:39:09.046Z,18.20
2022-10-11T16:41:37.514Z,24.00
2022-10-11T16:44:06.784Z,20.20
2022-10-11T16:46:35.105Z,23.80
2022-10-11T16:49:03.997Z,19.60
2022-10-11T16:51:31.967Z,25.50
2022-10-11T16:53:59.807Z,23.40
2022-10-11T16:56:28.192Z,19.60
2022-10-11T16:58:56.099Z,27.00
2022-10-11T17:01:26.965Z,19.70
2022-10-11T17:03:55.857Z,19.40
2022-10-11T17:06:23.986Z,22.70
2022-10-11T17:08:52.927Z,16.70
2022-10-11T17:11:22.417Z,20.40
2022-10-11T17:13:53.309Z,23.10
2022-10-11T17:16:22.176Z,25.00
2022-10-11T17:18:50.248Z,22.40
2022-10-11T17:21:20.168Z,21.40
2022-10-11T17:24:00.506Z,20.50
2022-10-11T17:26:30.487Z,24.10
2022-10-11T17:29:00.370Z,21.60
2022-10-11T17:31:29.824Z,21.20
2022-10-11T17:34:00.447Z,17.50
2022-10-11T17:36:31.802Z,21.60
2022-10-11T17:39:01.699Z,20.30
2022-10-11T17:41:32.191Z,21.10
2022-10-11T17:44:02.839Z,18.10
2022-10-11T17:46:39.436Z,25.50
2022-10-11T17:51:39.814Z,34.80
2022-10-11T17:54:12.474Z,34.20
2022-10-11T17:56:41.814Z,35.80
2022-10-11T17:59:17.178Z,33.10
2022-10-11T18:01:45.275Z,27.00
2022-10-11T18:04:16.761Z,27.60
2022-10-11T18:06:49.372Z,24.20
2022-10-11T18:09:18.812Z,25.20
2022-10-11T18:11:47.450Z,20.00
2022-10-11T18:14:15.745Z,21.90
2022-10-11T18:16:43.826Z,21.50
2022-10-11T18:19:13.183Z,17.30
2022-10-11T18:21:41.420Z,22.60
2022-10-11T18:24:15.053Z,18.30
2022-10-11T18:26:45.459Z,17.90
2022-10-11T18:29:13.800Z,23.80
2022-10-11T18:31:42.194Z,17.60
2022-10-11T18:38:55.015Z,17.10
2022-10-11T18:41:30.766Z,17.10
2022-10-11T18:44:01.768Z,22.80
2022-10-11T18:46:30.427Z,20.70
2022-10-11T18:49:02.106Z,19.80
2022-10-11T18:51:35.931Z,26.70
2022-10-11T18:54:06.223Z,20.10
2022-10-11T18:56:36.825Z,17.70
2022-10-11T18:59:06.514Z,23.40
2022-10-11T19:01:38.451Z,20.10
2022-10-11T19:04:09.778Z,19.70
2022-10-11T19:06:41.337Z,20.60
2022-10-11T19:09:13.261Z,24.80
2022-10-11T19:11:41.795Z,20.20
2022-10-11T19:14:14.565Z,22.80
2022-10-11T19:16:46.227Z,19.90
2022-10-11T19:19:14.390Z,17.60
2022-10-11T19:21:42.732Z,23.60
2022-10-11T19:24:10.858Z,23.40
2022-10-11T19:26:40.886Z,21.50
2022-10-11T19:29:14.983Z,25.80
2022-10-11T19:31:45.711Z,22.20
2022-10-11T19:34:14.046Z,20.40
2022-10-11T19:36:42.731Z,16.90
2022-10-11T19:39:14.216Z,18.90
2022-10-11T19:41:43.295Z,22.40
2022-10-11T19:44:12.758Z,19.80
2022-10-11T19:46:57.538Z,21.20
2022-10-11T19:49:27.239Z,20.70
2022-10-11T19:51:55.838Z,18.70
2022-10-11T19:54:23.970Z,20.50
2022-10-11T19:56:52.567Z,23.20
2022-10-11T19:59:20.566Z,22.30
2022-10-11T20:01:52.762Z,17.00
2022-10-11T20:04:50.498Z,20.90
2022-10-11T20:07:10.480Z,23.00
2022-10-11T20:09:38.560Z,21.90
2022-10-11T20:12:09.649Z,20.40
2022-10-11T20:14:37.584Z,18.60
2022-10-11T20:17:05.561Z,17.50
2022-10-11T20:19:33.407Z,19.10
2022-10-11T20:22:01.596Z,17.40
2022-10-11T20:24:33.553Z,22.90
2022-10-11T20:27:04.520Z,20.60
2022-10-11T20:29:32.710Z,20.00
2022-10-11T20:32:00.653Z,20.00
2022-10-11T20:34:28.843Z,20.60
2022-10-11T20:36:57.018Z,17.60
2022-10-11T20:39:25.387Z,20.90
2022-10-11T20:41:53.387Z,20.90
2022-10-11T20:44:21.651Z,19.50
2022-10-11T20:46:49.955Z,17.00
2022-10-11T20:49:20.082Z,17.80
2022-10-11T20:51:48.677Z,15.10
2022-10-11T20:54:17.205Z,16.40
2022-10-11T20:56:45.195Z,12.90
2022-10-11T20:59:13.133Z,15.80
2022-10-11T21:01:41.690Z,14.20
2022-10-11T21:04:17.666Z,16.30
2022-10-11T21:06:48.175Z,17.30
2022-10-11T21:09:17.218Z,18.00
2022-10-11T21:11:46.090Z,18.40
2022-10-11T21:14:22.369Z,15.70
2022-10-11T21:16:50.264Z,19.80
2022-10-11T21:19:18.352Z,16.30
2022-10-11T21:21:53.305Z,20.60
2022-10-11T21:24:55.702Z,18.70
2022-10-11T21:27:24.920Z,16.20
2022-10-11T21:29:53.139Z,19.50
2022-10-11T21:32:20.877Z,23.60
2022-10-11T21:34:48.709Z,19.70
2022-10-11T21:37:16.487Z,17.20
2022-10-11T21:39:44.273Z,15.60
2022-10-11T21:42:12.107Z,15.70
2022-10-11T21:44:42.977Z,19.30
2022-10-11T21:47:11.179Z,21.10
2022-10-11T21:49:39.009Z,15.30
2022-10-11T21:52:06.832Z,17.30
2022-10-11T21:54:34.697Z,16.60
2022-10-11T21:57:02.670Z,18.60
2022-10-11T21:59:30.470Z,17.20
2022-10-11T22:02:01.895Z,18.30
2022-10-11T22:04:30.228Z,16.00
2022-10-11T22:06:58.092Z,16.30
2022-10-11T22:09:27.689Z,17.10
2022-10-11T22:11:56.630Z,18.40
2022-10-11T22:14:25.077Z,15.80
2022-10-11T22:16:52.854Z,15.10
2022-10-11T22:19:20.992Z,10.90
2022-10-11T22:21:48.847Z,11.50
2022-10-11T22:24:17.159Z,10.20
2022-10-11T22:26:45.107Z,11.20
2022-10-11T22:29:12.878Z,13.50
2022-10-11T22:31:40.753Z,21.80
2022-10-11T22:34:08.715Z,16.80
2022-10-11T22:36:36.542Z,15.10
2022-10-11T22:39:08.595Z,13.50
2022-10-11T22:41:37.409Z,18.90
2022-10-11T22:44:05.736Z,15.20
2022-10-11T22:46:33.585Z,14.20
2022-10-11T22:49:01.744Z,15.70
2022-10-11T22:51:29.675Z,14.40
2022-10-11T22:53:57.439Z,15.60
2022-10-11T22:56:25.401Z,13.90
2022-10-11T22:58:53.214Z,17.70
2022-10-11T23:01:21.037Z,15.80
2022-10-11T23:03:50.803Z,15.10
2022-10-11T23:06:18.752Z,15.50
2022-10-11T23:08:46.718Z,13.80
2022-10-11T23:11:14.603Z,17.00
2022-10-11T23:13:42.402Z,15.30
2022-10-11T23:16:12.376Z,17.30
2022-10-11T23:18:40.234Z,15.40
2022-10-11T23:21:08.528Z,10.80
2022-10-11T23:23:37.016Z,14.60
2022-10-11T23:26:08.128Z,11.40
2022-10-11T23:28:36.175Z,15.30
2022-10-11T23:31:16.731Z,19.00
2022-10-11T23:33:46.203Z,14.30
2022-10-11T23:36:19.948Z,11.80
2022-10-11T23:38:53.339Z,14.80
2022-10-11T23:41:24.262Z,15.50
2022-10-11T23:43:52.641Z,12.50
2022-10-11T23:46:20.799Z,14.10
2022-10-11T23:48:48.688Z,14.70
2022-10-11T23:51:16.607Z,14.70
2022-10-11T23:53:44.660Z,15.70
2022-10-11T23:56:12.975Z,16.70
2022-10-11T23:58:41.107Z,15.80
